createdAt,value
2018-06-03T00:00:43.657Z,19.70
2018-06-03T00:02:43.638Z,19.67
2018-06-03T00:03:44.214Z,19.67
2018-06-03T00:05:45.113Z,19.74
2018-06-03T00:06:44.584Z,19.72
2018-06-03T00:08:46.126Z,19.70
2018-06-03T00:09:45.081Z,19.68
2018-06-03T00:11:45.437Z,19.72
2018-06-03T00:12:44.954Z,19.70
2018-06-03T00:14:47.890Z,19.67
2018-06-03T00:15:43.995Z,19.71
2018-06-03T00:17:44.901Z,19.71
2018-06-03T00:18:44.423Z,19.78
2018-06-03T00:20:44.931Z,19.74
2018-06-03T00:21:44.816Z,19.72
2018-06-03T00:23:45.371Z,19.75
2018-06-03T00:24:45.830Z,19.79
2018-06-03T00:26:45.867Z,19.64
2018-06-03T00:27:45.760Z,19.61
2018-06-03T00:29:46.304Z,19.65
2018-06-03T00:30:46.204Z,19.68
2018-06-03T00:32:48.175Z,19.74
2018-06-03T00:33:46.705Z,19.63
2018-06-03T00:35:48.148Z,19.60
2018-06-03T00:36:47.102Z,19.70
2018-06-03T00:38:47.578Z,19.67
2018-06-03T00:39:47.565Z,19.70
2018-06-03T00:41:49.544Z,19.78
2018-06-03T00:42:49.054Z,19.68
2018-06-03T00:44:48.570Z,19.74
2018-06-03T00:45:48.575Z,19.65
2018-06-03T00:47:49.054Z,19.75
2018-06-03T00:48:49.956Z,19.63
2018-06-03T00:50:52.569Z,19.70
2018-06-03T00:51:49.501Z,19.75
2018-06-03T00:53:49.987Z,19.71
2018-06-03T00:54:50.001Z,19.68
2018-06-03T00:56:50.512Z,19.67
2018-06-03T00:57:50.896Z,19.70
2018-06-03T00:59:51.898Z,19.63
2018-06-03T01:00:51.865Z,19.68
2018-06-03T01:03:02.353Z,19.67
2018-06-03T01:03:51.850Z,19.64
2018-06-03T01:05:54.876Z,19.67
2018-06-03T01:06:52.261Z,19.65
2018-06-03T01:08:52.294Z,19.57
2018-06-03T01:09:52.187Z,19.56
2018-06-03T01:11:54.252Z,19.57
2018-06-03T01:12:52.700Z,19.56
2018-06-03T01:14:53.178Z,19.60
2018-06-03T01:15:53.133Z,19.56
2018-06-03T01:17:54.138Z,19.60
2018-06-03T01:18:53.675Z,19.55
2018-06-03T01:20:56.049Z,19.56
2018-06-03T01:21:54.076Z,19.60
2018-06-03T01:23:54.499Z,19.57
2018-06-03T01:24:54.485Z,19.60
2018-06-03T01:26:57.490Z,19.61
2018-06-03T01:27:55.463Z,19.57
2018-06-03T01:29:56.404Z,19.60
2018-06-03T01:30:55.413Z,19.52
2018-06-03T01:32:58.928Z,19.49
2018-06-03T01:33:56.375Z,19.45
2018-06-03T01:36:02.898Z,19.52
2018-06-03T01:36:57.394Z,19.52
2018-06-03T01:38:56.939Z,19.45
2018-06-03T01:39:57.343Z,19.50
2018-06-03T01:41:57.361Z,19.42
2018-06-03T01:42:57.279Z,19.38
2018-06-03T01:44:58.825Z,19.40
2018-06-03T01:45:58.809Z,19.50
2018-06-03T01:47:59.298Z,19.49
2018-06-03T01:48:59.194Z,19.47
2018-06-03T01:51:00.189Z,19.57
2018-06-03T01:52:00.572Z,19.56
2018-06-03T01:54:01.135Z,19.47
2018-06-03T01:55:00.189Z,19.46
2018-06-03T01:57:00.664Z,19.43
2018-06-03T01:58:00.634Z,19.55
2018-06-03T02:00:03.677Z,19.52
2018-06-03T02:01:01.159Z,19.38
2018-06-03T02:03:01.602Z,19.42
2018-06-03T02:04:01.583Z,19.37
2018-06-03T02:06:02.034Z,19.42
2018-06-03T02:07:02.057Z,19.49
2018-06-03T02:09:03.020Z,19.52
2018-06-03T02:10:02.557Z,19.52
2018-06-03T02:12:00.414Z,19.49
2018-06-03T02:13:00.479Z,19.42
2018-06-03T02:15:01.865Z,19.52
2018-06-03T02:16:01.945Z,19.45
2018-06-03T02:18:02.374Z,19.50
2018-06-03T02:19:03.743Z,19.56
2018-06-03T02:21:03.371Z,19.61
2018-06-03T02:22:03.690Z,19.60
2018-06-03T02:24:03.760Z,19.60
2018-06-03T02:25:03.849Z,19.61
2018-06-03T02:27:05.304Z,19.60
2018-06-03T02:28:05.182Z,19.42
2018-06-03T02:30:03.398Z,19.46
2018-06-03T02:31:02.627Z,19.40
2018-06-03T02:33:03.115Z,19.38
2018-06-03T02:34:03.564Z,19.42
2018-06-03T02:36:03.543Z,19.40
2018-06-03T02:37:04.044Z,19.42
2018-06-03T02:39:05.031Z,19.35
2018-06-03T02:40:03.928Z,19.45
2018-06-03T02:42:04.906Z,19.30
2018-06-03T02:43:04.396Z,19.31
2018-06-03T02:45:04.916Z,19.35
2018-06-03T02:46:04.935Z,19.32
2018-06-03T02:48:06.360Z,19.28
2018-06-03T02:49:06.336Z,19.27
2018-06-03T02:51:05.739Z,19.30
2018-06-03T02:52:05.784Z,19.30
2018-06-03T02:54:06.268Z,19.19
2018-06-03T02:55:06.755Z,19.20
2018-06-03T02:57:06.713Z,19.16
2018-06-03T02:58:07.264Z,19.13
2018-06-03T03:00:08.205Z,19.15
2018-06-03T03:01:08.700Z,19.17
2018-06-03T03:03:11.403Z,18.99
2018-06-03T03:04:08.344Z,19.12
2018-06-03T03:06:08.822Z,19.15
2018-06-03T03:07:08.809Z,19.16
2018-06-03T03:09:10.312Z,19.06
2018-06-03T03:10:09.776Z,19.12
2018-06-03T03:12:09.711Z,19.10
2018-06-03T03:13:10.252Z,19.13
2018-06-03T03:15:10.319Z,19.06
2018-06-03T03:16:10.198Z,19.09
2018-06-03T03:18:10.705Z,19.07
2018-06-03T03:19:10.692Z,19.05
2018-06-03T03:21:11.128Z,18.91
2018-06-03T03:22:11.610Z,19.02
2018-06-03T03:24:12.152Z,19.05
2018-06-03T03:25:12.601Z,19.00
2018-06-03T03:27:13.051Z,19.00
2018-06-03T03:28:13.042Z,19.10
2018-06-03T03:30:13.658Z,19.06
2018-06-03T03:31:14.516Z,19.09
2018-06-03T03:33:16.013Z,19.00
2018-06-03T03:34:14.092Z,19.05
2018-06-03T03:36:16.014Z,19.02
2018-06-03T03:37:16.547Z,19.00
2018-06-03T03:39:17.489Z,18.86
2018-06-03T03:40:15.904Z,18.91
2018-06-03T03:42:19.422Z,18.82
2018-06-03T03:43:16.401Z,18.84
2018-06-03T03:45:18.440Z,18.84
2018-06-03T03:46:17.335Z,18.89
2018-06-03T03:48:20.886Z,18.90
2018-06-03T03:49:21.357Z,18.89
2018-06-03T03:51:21.241Z,18.84
2018-06-03T03:52:21.736Z,19.02
2018-06-03T03:54:21.713Z,18.91
2018-06-03T03:55:22.195Z,18.91
2018-06-03T03:57:23.825Z,18.96
2018-06-03T03:58:22.190Z,19.07
2018-06-03T04:00:25.571Z,18.93
2018-06-03T04:01:25.048Z,18.97
2018-06-03T04:03:27.020Z,19.00
2018-06-03T04:07:29.499Z,18.93
2018-06-03T04:12:43.390Z,18.91
2018-06-03T04:13:30.881Z,18.87
2018-06-03T04:18:39.304Z,18.89
2018-06-03T04:19:30.850Z,18.87
2018-06-03T04:30:43.162Z,18.96
2018-06-03T04:39:34.711Z,18.96
2018-06-03T04:42:40.688Z,18.89
2018-06-03T04:48:46.176Z,19.13
2018-06-03T04:51:46.787Z,19.23
2018-06-03T04:54:47.059Z,19.40
2018-06-03T04:57:50.072Z,19.53
2018-06-03T05:01:46.710Z,19.70
2018-06-03T05:03:47.665Z,19.79
2018-06-03T05:09:50.714Z,19.75
2018-06-03T05:13:42.757Z,19.67
2018-06-03T05:16:47.267Z,19.82
2018-06-03T05:18:47.108Z,19.78
2018-06-03T05:19:49.086Z,19.85
2018-06-03T05:21:47.107Z,19.83
2018-06-03T05:24:46.539Z,19.90
2018-06-03T05:25:44.552Z,19.80
2018-06-03T05:27:51.285Z,19.83
2018-06-03T05:30:48.241Z,19.80
2018-06-03T05:31:49.737Z,19.95
2018-06-03T05:33:50.722Z,19.95
2018-06-03T05:34:51.223Z,20.02
2018-06-03T05:36:42.689Z,20.08
2018-06-03T05:42:14.665Z,20.35
2018-06-03T05:45:20.728Z,20.41
2018-06-03T05:52:14.844Z,20.29
2018-06-03T05:54:15.792Z,20.30
2018-06-03T05:57:17.247Z,20.44
2018-06-03T06:01:11.254Z,20.46
2018-06-03T06:06:08.354Z,20.41
2018-06-03T06:07:07.368Z,20.41
2018-06-03T06:09:06.913Z,20.38
2018-06-03T06:11:25.243Z,20.66
2018-06-03T06:13:42.704Z,20.68
2018-06-03T06:14:41.724Z,20.67
2018-06-03T06:16:49.155Z,20.64
2018-06-03T06:17:42.654Z,20.76
2018-06-03T06:19:36.133Z,20.88
2018-06-03T06:22:34.080Z,20.93
2018-06-03T06:25:40.542Z,21.01
2018-06-03T06:28:39.008Z,21.12
2018-06-03T06:31:39.949Z,21.18
2018-06-03T06:34:41.954Z,21.31
2018-06-03T06:37:35.888Z,21.30
2018-06-03T06:41:30.471Z,21.40
2018-06-03T06:43:26.465Z,21.48
2018-06-03T06:45:48.037Z,21.62
2018-06-03T06:46:47.872Z,21.56
2018-06-03T06:51:46.718Z,21.58
2018-06-03T06:54:40.887Z,21.48
2018-06-03T06:55:40.289Z,21.37
2018-06-03T06:57:39.643Z,21.28
2018-06-03T07:00:38.110Z,21.13
2018-06-03T07:01:32.184Z,21.04
2018-06-03T07:03:31.595Z,20.86
2018-06-03T07:04:31.155Z,20.90
2018-06-03T07:06:24.827Z,20.83
2018-06-03T07:07:25.322Z,20.78
2018-06-03T07:09:25.204Z,20.96
2018-06-03T07:10:25.236Z,20.98
2018-06-03T07:12:27.617Z,21.13
2018-06-03T07:13:26.723Z,21.11
2018-06-03T07:15:26.359Z,21.16
2018-06-03T07:16:26.161Z,21.12
2018-06-03T07:18:27.250Z,21.16
2018-06-03T07:19:27.628Z,21.19
2018-06-03T07:21:28.109Z,21.31
2018-06-03T07:22:27.151Z,21.37
2018-06-03T07:24:29.219Z,21.51
2018-06-03T07:25:28.113Z,21.56
2018-06-03T07:27:31.098Z,21.73
2018-06-03T07:28:28.147Z,21.77
2018-06-03T07:30:28.523Z,21.90
2018-06-03T07:31:28.549Z,22.07
2018-06-03T07:33:29.981Z,22.15
2018-06-03T07:34:29.942Z,22.27
2018-06-03T07:36:30.852Z,22.26
2018-06-03T07:37:30.326Z,22.41
2018-06-03T07:39:31.763Z,22.49
2018-06-03T07:40:30.862Z,22.45
2018-06-03T07:42:33.885Z,22.57
2018-06-03T07:43:32.410Z,22.54
2018-06-03T07:45:34.290Z,22.60
2018-06-03T07:46:32.851Z,22.57
2018-06-03T07:49:00.893Z,22.67
2018-06-03T07:49:41.873Z,22.63
2018-06-03T07:51:42.654Z,22.67
2018-06-03T07:52:42.515Z,22.82
2018-06-03T07:55:03.717Z,22.71
2018-06-03T07:55:43.079Z,22.82
2018-06-03T07:57:49.018Z,22.75
2018-06-03T08:00:36.390Z,22.49
2018-06-03T08:02:07.542Z,22.49
2018-06-03T08:03:36.320Z,22.46
2018-06-03T08:04:36.432Z,22.48
2018-06-03T08:07:38.836Z,22.64
2018-06-03T08:08:38.225Z,22.99
2018-06-03T08:10:44.752Z,23.06
2018-06-03T08:11:43.631Z,23.12
2018-06-03T08:14:27.176Z,23.38
2018-06-03T08:15:27.186Z,23.37
2018-06-03T08:17:26.423Z,23.53
2018-06-03T08:18:28.214Z,23.53
2018-06-03T08:20:25.496Z,23.48
2018-06-03T08:21:26.911Z,23.48
2018-06-03T08:23:31.612Z,23.52
2018-06-03T08:24:29.011Z,23.57
2018-06-03T08:26:29.634Z,23.75
2018-06-03T08:27:30.710Z,23.89
2018-06-03T08:29:28.499Z,24.07
2018-06-03T08:30:28.022Z,24.15
2018-06-03T08:32:46.549Z,24.09
2018-06-03T08:34:28.913Z,23.92
2018-06-03T08:35:24.405Z,23.81
2018-06-03T08:41:36.342Z,23.90
2018-06-03T08:42:10.488Z,23.89
2018-06-03T08:44:39.687Z,23.89
2018-06-03T08:47:39.454Z,23.84
2018-06-03T08:48:38.708Z,23.82
2018-06-03T08:50:42.337Z,23.71
2018-06-03T08:53:17.046Z,23.66
2018-06-03T08:54:16.695Z,23.45
2018-06-03T08:56:19.202Z,23.42
2018-06-03T08:57:17.239Z,23.57
2018-06-03T08:59:18.225Z,23.63
2018-06-03T09:00:18.291Z,23.67
2018-06-03T09:02:19.667Z,23.48
2018-06-03T09:03:18.191Z,23.45
2018-06-03T09:05:19.678Z,23.38
2018-06-03T09:06:19.271Z,23.47
2018-06-03T09:12:00.128Z,23.48
2018-06-03T09:12:16.995Z,23.45
2018-06-03T09:17:58.696Z,23.74
2018-06-03T09:21:01.172Z,24.09
2018-06-03T09:24:32.811Z,24.45
2018-06-03T09:25:29.809Z,24.59
2018-06-03T09:27:50.328Z,24.46
2018-06-03T09:28:36.274Z,24.39
2018-06-03T09:30:40.101Z,24.26
2018-06-03T09:37:42.395Z,24.27
2018-06-03T09:40:00.328Z,24.26
2018-06-03T09:40:59.266Z,24.09
2018-06-03T09:43:15.639Z,24.17
2018-06-03T09:44:00.942Z,24.26
2018-06-03T09:46:00.232Z,24.22
2018-06-03T09:47:15.790Z,24.34
2018-06-03T09:49:00.999Z,24.40
2018-06-03T09:50:15.027Z,24.48
2018-06-03T09:52:00.481Z,24.63
2018-06-03T09:52:59.957Z,24.69
2018-06-03T09:55:06.434Z,24.75
2018-06-03T09:58:00.369Z,25.01
2018-06-03T09:59:11.506Z,25.04
2018-06-03T10:01:40.215Z,25.14
2018-06-03T10:11:30.143Z,25.71
2018-06-03T10:14:46.720Z,25.39
2018-06-03T10:15:58.737Z,25.20
2018-06-03T10:19:13.480Z,24.66
2018-06-03T10:21:46.575Z,24.42
2018-06-03T10:28:09.581Z,24.32
2018-06-03T10:30:56.281Z,23.90
2018-06-03T10:31:57.282Z,23.97
2018-06-03T10:35:55.240Z,24.24
2018-06-03T10:36:55.262Z,24.36
2018-06-03T10:39:04.854Z,24.34
2018-06-03T10:39:54.858Z,24.39
2018-06-03T10:41:57.346Z,24.59
2018-06-03T10:42:57.801Z,24.49
2018-06-03T10:45:16.968Z,24.58
2018-06-03T10:47:36.132Z,24.55
2018-06-03T10:48:56.657Z,24.52
2018-06-03T10:51:21.691Z,24.64
2018-06-03T10:52:52.713Z,24.54
2018-06-03T10:54:45.275Z,24.78
2018-06-03T10:55:32.239Z,24.80
2018-06-03T10:57:31.260Z,24.86
2018-06-03T10:58:49.926Z,25.02
2018-06-03T11:01:00.450Z,25.19
2018-06-03T11:01:33.743Z,25.34
2018-06-03T11:03:35.215Z,25.51
2018-06-03T11:04:34.193Z,25.49
2018-06-03T11:07:00.217Z,25.62
2018-06-03T11:07:39.690Z,25.75
2018-06-03T11:09:51.790Z,25.86
2018-06-03T11:15:18.228Z,25.91
2018-06-03T11:16:20.479Z,25.89
2018-06-03T11:18:18.592Z,25.91
2018-06-03T11:19:19.932Z,26.06
2018-06-03T11:21:37.396Z,26.03
2018-06-03T11:23:40.533Z,26.32
2018-06-03T11:24:55.908Z,26.31
2018-06-03T11:26:40.877Z,26.41
2018-06-03T11:27:42.371Z,26.41
2018-06-03T11:29:43.378Z,26.20
2018-06-03T11:30:41.355Z,26.04
2018-06-03T11:37:04.671Z,26.17
2018-06-03T11:38:06.980Z,26.26
2018-06-03T11:40:07.100Z,26.19
2018-06-03T11:41:08.588Z,26.12
2018-06-03T11:43:07.568Z,25.91
2018-06-03T11:44:08.059Z,26.03
2018-06-03T11:46:25.588Z,25.74
2018-06-03T11:50:16.610Z,25.82
2018-06-03T11:51:32.243Z,25.94
2018-06-03T11:53:28.883Z,26.16
2018-06-03T11:54:18.373Z,26.06
2018-06-03T11:56:15.886Z,25.94
2018-06-03T11:57:16.345Z,26.01
2018-06-03T11:59:16.414Z,25.89
2018-06-03T12:00:15.846Z,25.71
2018-06-03T12:04:15.363Z,25.56
2018-06-03T12:05:29.696Z,25.66
2018-06-03T12:07:42.888Z,25.45
2018-06-03T12:08:16.332Z,25.47
2018-06-03T12:10:13.747Z,25.45
2018-06-03T12:11:14.740Z,25.51
2018-06-03T12:13:13.725Z,25.33
2018-06-03T12:14:17.739Z,25.51
2018-06-03T12:18:10.467Z,25.56
2018-06-03T12:19:06.454Z,25.45
2018-06-03T12:21:06.176Z,25.41
2018-06-03T12:22:05.172Z,25.27
2018-06-03T12:24:04.143Z,25.27
2018-06-03T12:25:03.653Z,25.38
2018-06-03T12:27:04.823Z,25.49
2018-06-03T12:28:06.302Z,25.48
2018-06-03T12:30:04.484Z,25.44
2018-06-03T12:31:05.308Z,25.37
2018-06-03T12:33:18.344Z,25.24
2018-06-03T12:34:07.804Z,25.29
2018-06-03T12:36:07.287Z,25.24
2018-06-03T12:37:07.781Z,25.24
2018-06-03T12:39:08.367Z,25.29
2018-06-03T12:40:06.957Z,25.33
2018-06-03T12:42:20.745Z,25.23
2018-06-03T12:43:08.547Z,25.22
2018-06-03T12:45:10.289Z,25.42
2018-06-03T12:46:10.786Z,25.45
2018-06-03T12:48:11.449Z,25.39
2018-06-03T12:49:26.266Z,25.45
2018-06-03T12:51:12.730Z,25.54
2018-06-03T12:52:10.873Z,25.64
2018-06-03T12:54:13.207Z,25.74
2018-06-03T12:55:11.349Z,25.82
2018-06-03T13:01:59.621Z,26.00
2018-06-03T13:07:39.591Z,26.01
2018-06-03T13:10:26.442Z,26.03
2018-06-03T13:13:42.764Z,26.19
2018-06-03T13:14:38.589Z,26.19
2018-06-03T13:16:35.684Z,26.38
2018-06-03T13:17:35.195Z,26.47
2018-06-03T13:19:56.583Z,26.32
2018-06-03T13:22:17.387Z,26.23
2018-06-03T13:29:47.719Z,26.19
2018-06-03T13:30:31.649Z,26.30
2018-06-03T13:33:10.727Z,26.11
2018-06-03T13:33:56.613Z,26.07
2018-06-03T13:35:57.389Z,25.85
2018-06-03T13:36:57.651Z,25.78
2018-06-03T13:38:56.742Z,25.62
2018-06-03T13:40:13.130Z,25.63
2018-06-03T13:41:57.211Z,25.54
2018-06-03T13:42:59.549Z,25.49
2018-06-03T13:45:01.666Z,25.52
2018-06-03T13:45:58.724Z,25.49
2018-06-03T13:48:06.011Z,25.47
2018-06-03T13:49:03.498Z,25.48
2018-06-03T13:51:08.316Z,25.23
2018-06-03T13:52:07.206Z,25.26
2018-06-03T13:54:10.702Z,25.34
2018-06-03T13:56:51.748Z,25.56
2018-06-03T14:01:03.858Z,25.64
2018-06-03T14:01:51.664Z,25.67
2018-06-03T14:09:37.129Z,26.04
2018-06-03T14:10:23.634Z,26.01
2018-06-03T14:15:22.167Z,25.64
2018-06-03T14:16:18.577Z,25.75
2018-06-03T14:19:00.215Z,25.93
2018-06-03T14:19:33.054Z,26.00
2018-06-03T14:20:47.956Z,26.15
2018-06-03T14:22:33.557Z,26.17
2018-06-03T14:25:11.998Z,26.04
2018-06-03T14:25:55.686Z,26.04
2018-06-03T14:28:07.962Z,26.06
2018-06-03T14:29:07.185Z,26.12
2018-06-03T14:34:34.443Z,26.52
2018-06-03T14:34:53.087Z,26.64
2018-06-03T14:37:24.669Z,26.59
2018-06-03T14:38:21.525Z,26.75
2018-06-03T14:40:22.256Z,26.49
2018-06-03T14:41:21.701Z,26.50
2018-06-03T14:43:21.871Z,26.59
2018-06-03T14:44:21.251Z,26.61
2018-06-03T14:46:23.726Z,26.69
2018-06-03T14:47:18.034Z,26.61
2018-06-03T14:49:18.582Z,26.84
2018-06-03T14:50:18.535Z,26.72
2018-06-03T14:54:18.522Z,26.78
2018-06-03T14:55:17.569Z,26.68
2018-06-03T14:57:19.549Z,26.57
2018-06-03T14:58:18.946Z,26.53
2018-06-03T15:00:20.388Z,26.37
2018-06-03T15:01:19.391Z,26.39
2018-06-03T15:06:47.536Z,26.37
2018-06-03T15:09:28.134Z,26.61
2018-06-03T15:10:30.145Z,26.63
2018-06-03T15:12:49.086Z,26.63
2018-06-03T15:13:28.579Z,26.72
2018-06-03T15:15:30.130Z,26.84
2018-06-03T15:18:17.760Z,26.82
2018-06-03T15:19:17.800Z,26.72
2018-06-03T15:21:32.641Z,26.68
2018-06-03T15:24:17.562Z,26.67
2018-06-03T15:27:33.265Z,26.78
2018-06-03T15:28:20.897Z,26.76
2018-06-03T15:33:05.864Z,26.67
2018-06-03T15:34:06.167Z,26.60
2018-06-03T15:36:10.209Z,26.52
2018-06-03T15:37:19.868Z,26.49
2018-06-03T15:39:07.823Z,26.52
2018-06-03T15:40:07.202Z,26.37
2018-06-03T15:44:25.574Z,26.32
2018-06-03T15:45:33.584Z,26.23
2018-06-03T15:47:24.011Z,26.01
2018-06-03T15:48:21.515Z,26.00
2018-06-03T15:50:20.499Z,26.17
2018-06-03T15:51:19.998Z,26.27
2018-06-03T15:53:21.038Z,26.30
2018-06-03T15:54:20.501Z,26.39
2018-06-03T15:56:19.022Z,26.34
2018-06-03T15:57:18.989Z,26.31
2018-06-03T15:59:18.657Z,26.37
2018-06-03T16:00:19.170Z,26.32
2018-06-03T16:02:28.154Z,26.27
2018-06-03T16:03:20.135Z,26.37
2018-06-03T16:05:49.694Z,26.47
2018-06-03T16:09:26.566Z,26.45
2018-06-03T16:10:11.176Z,26.45
2018-06-03T16:13:21.539Z,26.41
2018-06-03T16:14:34.560Z,26.39
2018-06-03T16:16:21.992Z,26.41
2018-06-03T16:17:21.499Z,26.47
2018-06-03T16:19:57.532Z,26.59
2018-06-03T16:20:23.012Z,26.63
2018-06-03T16:22:37.859Z,26.71
2018-06-03T16:23:41.432Z,26.68
2018-06-03T16:25:55.942Z,26.74
2018-06-03T16:26:45.094Z,26.59
2018-06-03T16:28:38.088Z,26.78
2018-06-03T16:31:34.095Z,26.82
2018-06-03T16:32:32.087Z,26.74
2018-06-03T16:39:26.615Z,26.69
2018-06-03T16:40:32.406Z,26.63
2018-06-03T16:42:31.289Z,26.76
2018-06-03T16:46:16.036Z,27.41
2018-06-03T16:49:10.809Z,27.81
2018-06-03T16:49:57.115Z,27.93
2018-06-03T16:52:15.784Z,28.46
2018-06-03T16:53:16.791Z,28.31
2018-06-03T16:55:13.423Z,28.27
2018-06-03T16:59:31.186Z,27.65
2018-06-03T17:00:29.691Z,27.34
2018-06-03T17:02:27.576Z,27.00
2018-06-03T17:03:27.791Z,26.81
2018-06-03T17:05:32.539Z,26.97
2018-06-03T17:06:31.134Z,27.05
2018-06-03T17:08:30.551Z,26.84
2018-06-03T17:09:30.073Z,26.97
2018-06-03T17:12:59.752Z,26.91
2018-06-03T17:13:56.253Z,26.99
2018-06-03T17:15:55.402Z,27.00
2018-06-03T17:16:54.600Z,26.91
2018-06-03T17:18:53.897Z,26.78
2018-06-03T17:19:52.450Z,26.78
2018-06-03T17:22:07.074Z,26.60
2018-06-03T17:22:58.430Z,26.54
2018-06-03T17:25:00.337Z,26.32
2018-06-03T17:26:00.838Z,26.31
2018-06-03T17:28:00.314Z,26.24
2018-06-03T17:29:01.316Z,26.26
2018-06-03T17:30:57.291Z,26.31
2018-06-03T17:31:56.295Z,26.26
2018-06-03T17:33:52.775Z,26.17
2018-06-03T17:34:51.322Z,26.26
2018-06-03T17:36:48.250Z,26.15
2018-06-03T17:37:48.236Z,26.15
2018-06-03T17:39:46.504Z,26.01
2018-06-03T17:40:46.930Z,25.97
2018-06-03T17:42:43.577Z,25.86
2018-06-03T17:43:42.613Z,25.86
2018-06-03T17:45:42.537Z,25.81
2018-06-03T17:46:41.542Z,25.74
2018-06-03T17:48:36.993Z,25.69
2018-06-03T17:51:34.930Z,25.64
2018-06-03T17:52:32.952Z,25.67
2018-06-03T17:54:32.400Z,25.62
2018-06-03T17:55:31.890Z,25.51
2018-06-03T17:57:31.562Z,25.45
2018-06-03T17:58:32.541Z,25.45
2018-06-03T18:00:30.027Z,25.42
2018-06-03T18:01:29.024Z,25.41
2018-06-03T18:03:29.982Z,25.39
2018-06-03T18:04:31.493Z,25.42
2018-06-03T18:06:24.948Z,25.33
2018-06-03T18:07:22.947Z,25.37
2018-06-03T18:09:17.963Z,25.39
2018-06-03T18:12:16.861Z,25.24
2018-06-03T18:13:14.863Z,25.30
2018-06-03T18:15:12.864Z,25.27
2018-06-03T18:18:09.345Z,25.38
2018-06-03T18:19:09.843Z,25.51
2018-06-03T18:21:07.493Z,25.78
2018-06-03T18:22:04.071Z,25.82
2018-06-03T18:24:01.965Z,25.76
2018-06-03T18:25:00.017Z,25.66
2018-06-03T18:26:58.423Z,25.42
2018-06-03T18:27:57.420Z,25.34
2018-06-03T18:29:53.399Z,25.24
2018-06-03T18:32:57.359Z,25.02
2018-06-03T18:33:48.869Z,24.97
2018-06-03T18:35:44.841Z,24.96
2018-06-03T18:38:47.829Z,24.90
2018-06-03T18:39:44.418Z,24.77
2018-06-03T18:41:43.767Z,24.77
2018-06-03T18:42:43.281Z,24.70
2018-06-03T18:44:41.724Z,24.70
2018-06-03T18:45:39.725Z,24.71
2018-06-03T18:47:39.189Z,24.66
2018-06-03T18:48:37.197Z,24.61
2018-06-03T18:50:32.736Z,24.61
2018-06-03T18:51:33.658Z,24.56
2018-06-03T18:53:30.124Z,24.54
2018-06-03T18:54:29.187Z,24.52
2018-06-03T18:56:25.607Z,24.40
2018-06-03T18:59:26.649Z,24.36
2018-06-03T19:00:23.053Z,24.29
2018-06-03T19:02:18.104Z,24.32
2018-06-03T19:03:18.049Z,24.32
2018-06-03T19:05:15.953Z,24.24
2018-06-03T19:06:15.457Z,24.09
2018-06-03T19:08:12.054Z,23.97
2018-06-03T19:09:13.425Z,23.97
2018-06-03T19:11:08.463Z,23.90
2018-06-03T19:12:08.011Z,23.82
2018-06-03T19:14:03.994Z,23.77
2018-06-03T19:15:03.923Z,23.78
2018-06-03T19:16:59.885Z,23.70
2018-06-03T19:17:59.907Z,23.74
2018-06-03T19:19:59.296Z,23.63
2018-06-03T19:20:57.869Z,23.63
2018-06-03T19:22:54.863Z,23.55
2018-06-03T19:23:53.848Z,23.48
2018-06-03T19:25:51.969Z,23.47
2018-06-03T19:26:51.987Z,23.48
2018-06-03T19:28:50.022Z,23.38
2018-06-03T19:29:49.964Z,23.37
2018-06-03T19:31:48.371Z,23.37
2018-06-03T19:32:47.893Z,23.29
2018-06-03T19:34:54.352Z,23.32
2018-06-03T19:35:46.046Z,23.24
2018-06-03T19:37:44.160Z,23.07
2018-06-03T19:38:44.169Z,23.07
2018-06-03T19:40:42.330Z,23.10
2018-06-03T19:41:42.296Z,23.07
2018-06-03T19:43:40.269Z,23.00
2018-06-03T19:44:40.292Z,23.07
2018-06-03T19:46:47.305Z,22.94
2018-06-03T19:47:37.240Z,22.94
2018-06-03T19:49:35.216Z,22.76
2018-06-03T19:50:35.228Z,22.84
2018-06-03T19:52:32.657Z,22.79
2018-06-03T19:53:31.130Z,22.75
2018-06-03T19:55:27.178Z,22.73
2018-06-03T19:56:27.094Z,22.63
2018-06-03T19:58:23.584Z,22.61
2018-06-03T19:59:23.114Z,22.67
2018-06-03T20:01:21.063Z,22.63
2018-06-03T20:02:21.528Z,22.52
2018-06-03T20:04:16.977Z,22.54
2018-06-03T20:05:16.991Z,22.59
2018-06-03T20:07:13.486Z,22.48
2018-06-03T20:08:12.959Z,22.45
2018-06-03T20:10:09.446Z,22.38
2018-06-03T20:11:08.926Z,22.27
2018-06-03T20:13:06.305Z,22.26
2018-06-03T20:14:06.404Z,22.29
2018-06-03T20:16:00.843Z,22.24
2018-06-03T20:17:00.845Z,22.18
2018-06-03T20:18:57.314Z,22.18
2018-06-03T20:19:57.353Z,22.12
2018-06-03T20:21:54.780Z,22.05
2018-06-03T20:22:54.718Z,22.04
2018-06-03T20:24:53.194Z,22.09
2018-06-03T20:25:51.198Z,22.02
2018-06-03T20:27:48.277Z,21.93
2018-06-03T20:28:47.158Z,21.90
2018-06-03T20:30:42.775Z,21.94
2018-06-03T20:31:43.134Z,21.97
2018-06-03T20:33:38.571Z,21.90
2018-06-03T20:34:38.587Z,21.90
2018-06-03T20:38:32.213Z,21.80
2018-06-03T20:39:09.732Z,21.74
2018-06-03T20:41:06.172Z,21.74
2018-06-03T20:42:05.190Z,21.70
2018-06-03T21:03:05.333Z,21.36
2018-06-03T21:03:57.833Z,21.34
2018-06-03T21:05:54.791Z,21.31
2018-06-03T21:06:54.793Z,21.31
2018-06-03T21:15:08.269Z,21.22
2018-06-03T21:16:08.246Z,21.11
2018-06-03T21:18:04.237Z,21.09
2018-06-03T21:19:04.249Z,21.06
2018-06-03T21:21:28.804Z,21.06
2018-06-03T21:22:00.181Z,20.98
2018-06-03T21:23:57.134Z,20.94
2018-06-03T21:24:56.151Z,20.97
2018-06-03T21:26:53.113Z,20.97
2018-06-03T21:27:52.115Z,20.85
2018-06-03T21:29:48.041Z,20.97
2018-06-03T21:30:48.572Z,20.86
2018-06-03T21:32:45.454Z,20.96
2018-06-03T21:33:44.026Z,20.85
2018-06-03T21:35:39.980Z,20.90
2018-06-03T21:36:39.969Z,20.81
2018-06-03T21:38:35.889Z,20.78
2018-06-03T21:39:35.878Z,20.78
2018-06-03T21:41:31.869Z,20.82
2018-06-03T21:42:32.870Z,20.78
2018-06-03T21:44:27.814Z,20.75
2018-06-03T21:45:27.863Z,20.68
2018-06-03T21:47:24.299Z,20.68
2018-06-03T21:48:23.771Z,20.66
2018-06-03T21:50:20.746Z,20.64
2018-06-03T21:51:19.733Z,20.64
2018-06-03T21:53:17.217Z,20.61
2018-06-03T21:54:17.188Z,20.53
2018-06-03T21:56:14.164Z,20.44
2018-06-03T21:57:13.645Z,20.51
2018-06-03T21:59:10.607Z,20.44
2018-06-03T22:00:10.105Z,20.38
2018-06-03T22:02:05.553Z,20.48
2018-06-03T22:03:05.544Z,20.35
2018-06-03T22:05:03.033Z,20.37
2018-06-03T22:06:03.941Z,20.41
2018-06-03T22:07:58.964Z,20.38
2018-06-03T22:08:59.890Z,20.51
2018-06-03T22:10:54.919Z,20.42
2018-06-03T22:11:54.411Z,20.34
2018-06-03T22:13:51.385Z,20.34
2018-06-03T22:16:47.751Z,20.32
2018-06-03T22:17:47.745Z,20.30
2018-06-03T22:19:43.708Z,20.29
2018-06-03T22:20:42.292Z,20.26
2018-06-03T22:22:38.264Z,20.29
2018-06-03T22:23:39.669Z,20.27
2018-06-03T22:25:35.128Z,20.22
2018-06-03T22:28:31.615Z,20.20
2018-06-03T22:29:31.099Z,20.12
2018-06-03T22:31:26.056Z,20.12
2018-06-03T22:32:27.508Z,20.12
2018-06-03T22:34:23.967Z,20.11
2018-06-03T22:35:22.027Z,20.12
2018-06-03T22:37:19.905Z,20.10
2018-06-03T22:40:14.962Z,19.98
2018-06-03T22:43:10.865Z,19.95
2018-06-03T22:44:10.868Z,19.86
2018-06-03T22:46:05.890Z,19.97
2018-06-03T22:47:05.894Z,19.93
2018-06-03T22:49:01.879Z,19.83
2018-06-03T22:50:02.833Z,19.92
2018-06-03T22:51:59.719Z,19.85
2018-06-03T22:53:00.226Z,19.97
2018-06-03T22:54:55.754Z,19.86
2018-06-03T22:55:56.208Z,19.80
2018-06-03T22:57:52.714Z,19.86
2018-06-03T22:58:52.688Z,19.79
2018-06-03T23:00:50.227Z,19.82
2018-06-03T23:01:48.640Z,19.78
2018-06-03T23:03:45.120Z,19.75
2018-06-03T23:04:44.629Z,19.75
2018-06-03T23:06:40.632Z,19.71
2018-06-03T23:07:40.610Z,19.72
2018-06-03T23:09:38.547Z,19.70
2018-06-03T23:10:38.588Z,19.63
2018-06-03T23:12:36.964Z,19.52
2018-06-03T23:13:34.537Z,19.55
2018-06-03T23:15:31.414Z,19.49
2018-06-03T23:17:48.452Z,19.49
2018-06-03T23:18:46.474Z,19.42
2018-06-03T23:20:45.342Z,19.40
2018-06-03T23:21:42.411Z,19.35
2018-06-03T23:23:40.794Z,19.40
2018-06-03T23:24:39.309Z,19.40
2018-06-03T23:26:34.357Z,19.37
2018-06-03T23:27:34.816Z,19.32
2018-06-03T23:29:31.208Z,19.38
2018-06-03T23:30:30.237Z,19.30
2018-06-03T23:32:28.128Z,19.34
2018-06-03T23:33:26.193Z,19.32
2018-06-03T23:35:23.082Z,19.28
2018-06-03T23:36:22.121Z,19.30
2018-06-03T23:38:19.031Z,19.32
2018-06-03T23:39:19.034Z,19.24
2018-06-03T23:41:14.975Z,19.19
2018-06-03T23:42:14.062Z,19.19
2018-06-03T23:44:10.507Z,19.07